Grange-over-Sands, United Kingdom
Current Conditions -  °F | °C
As of 9:20 AM on Tuesday 21 Oct 2014 (Local Time) from EGNO Reporting Station
Rain Showers Rain Showers  
Wind Chill: 52°   Ceiling: 3000
Heat Index: 52°   Visibility: 6mi
Dew Point: 41°   Wind: 29mph
Humidity: 67%   Direction: 290°WNW
Pressure: 29.47"   Gusts: 45mph
Location:  54.2°N, 2.9°W
Report Text: EGNO 210820Z 29025G39KT 9999 VCSH BKN030 11/05 Q0998
Loading
Personal Weather Stations






























Interactive Weather Map
Tropical Storm Tracking
New forecast layout! Learn more

10-Day Weather Forecast

Advertisements
Track Severe Weather on mobile